Flight Information

DEPARTURE
OXNARD, CA
Elevation:
44
Runways:
7/25 - 5953x100 - ASPH-F
ATIS:
118.05 805-985-1758
Ground:
121.9
Tower:
134.95
DESTINATION
REDDING, CA
Elevation:
504
TPA:
1504 (est.)
Runways:
16/34 - 7003x150 - ASPH-G
12/30 - 5067x150 - ASPH-G
ATIS:
124.1
Tower:
REDDING TOWER 119.8
Ground:
121.7


406 NM340° True-14° Var325° HDG

Flight Plan:
(click to file on line)

1. Type
2. Aircraft Identification
3. Aircraft Type / Special Equipment
4. True Airspeed
kts
5. Departure Airport
(ICAO code)
6. Arriving Airport
(ICAO code)
7. Cruising Altitude
ft
8. Alternate Airport
(ICAO code)
9. Route of Flight
10. Remarks


00:00:00 Departure ATIS: Destination ATIS:

Clearance Limit:
Route:
Altitude: Expect in minutes
Frequency:
Transponder: (7500 Hijack / 7600 Lost Comms / 7700 Emergency)


KOXR 181251Z AUTO 31003KT 1/2SM FG VV002 13/13 A2992 RMK AO2 SLP132 T01330133
Time: 2022-08-18T12:51:00Z
1660828527
Winds: 310 @ 3 kts
Visibility: 0.5 sm
Clouds (AGL): OVX 0
Temperature: 13.3 C
Dew Point: 13.3 C
Pressure: 29.920275 in Hgbr

KRDD 181253Z AUTO 34004KT 10SM FU HZ CLR 29/11 A2986 RMK AO2 SLP105 T02890106
Time: 2022-08-18T12:53:00Z
1660828528
Winds: 340 @ 4 kts
Visibility: 10.0 sm
Clouds (AGL): CLR
Temperature: 28.9 C
Dew Point: 10.6 C
Pressure: 29.861221 in Hgbr


Notes:

Data extracted from FAA Digital Chart Supplement. Effective: 0901Z Thursday, 27 JAN 2022 to 0900z Thursday, 24 MAR 2022
Current ATIS data is provided courtisy of PilotEdge.